This is the latest recevied telemetry packets stored in our database for station/object DA6DA-12. If no packets are shown the sender has not sent any telemetry packets the latest 1 day(s).
Telemetry packets is used to share measurements like repeteater parameters, battery voltage, radiation readings (or any other measurements).
| Time | Press* | Temp.in* | Hum* | QNH* | Temp.out* |
|---|---|---|---|---|---|
| 1778016238 | 987.8 hPa | 20.4 C deg | 30.1 % | 1007.7 hPa | 13 C deg |
| 1778014420 | 987.9 hPa | 20.6 C deg | 30 % | 1007.8 hPa | 13.1 C deg |
| 1778012605 | 987.8 hPa | 21.1 C deg | 29.3 % | 1007.7 hPa | 13.1 C deg |
| 1778010790 | 987.9 hPa | 22 C deg | 28.7 % | 1007.8 hPa | 13.2 C deg |
| 1778008975 | 987.7 hPa | 21.8 C deg | 29.7 % | 1007.6 hPa | 13.1 C deg |
| 1778007160 | 987.6 hPa | 21.9 C deg | 30.6 % | 1007.5 hPa | 13 C deg |
| 1778005344 | 987.5 hPa | 21.8 C deg | 30.6 % | 1007.3 hPa | 15.2 C deg |
| 1778002558 | 987.2 hPa | 20.8 C deg | 33.4 % | 1007.1 hPa | 15.8 C deg |
| 1778000742 | 987.1 hPa | 17.8 C deg | 38.3 % | 1007.2 hPa | 16.6 C deg |
| 1777998927 | 987 hPa | 18.2 C deg | 35.5 % | 1007.1 hPa | 17.8 C deg |
| 1777997112 | 987.2 hPa | 18.1 C deg | 35.8 % | 1007.3 hPa | 18 C deg |
| 1777995297 | 987.5 hPa | 18.2 C deg | 36.5 % | 1007.5 hPa | 17.7 C deg |
| 1777993482 | 987.7 hPa | 18.5 C deg | 35.2 % | 1007.7 hPa | 18.1 C deg |
| 1777989855 | 988.1 hPa | 19.5 C deg | 31.2 % | 1008.1 hPa | 19.1 C deg |
| 1777988040 | 988.2 hPa | 19.7 C deg | 30.1 % | 1008.2 hPa | 21.8 C deg |
| 1777986224 | 988.4 hPa | 19.7 C deg | 29.9 % | 1008.4 hPa | 21.7 C deg |
| 1777984409 | 988.5 hPa | 19.5 C deg | 30 % | 1008.5 hPa | 21.1 C deg |
| 1777982594 | 988.7 hPa | 15.3 C deg | 34.8 % | 1009.1 hPa | 22.3 C deg |
| 1777980594 | 989 hPa | 20.2 C deg | 29 % | 1008.9 hPa | 20.8 C deg |
| 1777976967 | 989.6 hPa | 19.9 C deg | 29.8 % | 1009.6 hPa | 22.6 C deg |
| 1777975152 | 990 hPa | 19.9 C deg | 29.9 % | 1010 hPa | 21.4 C deg |
| 1777973335 | 990.1 hPa | 19.5 C deg | 30.8 % | 1010.2 hPa | 21.2 C deg |
| 1777971520 | 990.2 hPa | 18.8 C deg | 33.3 % | 1010.3 hPa | 19.4 C deg |
| 1777969705 | 990.5 hPa | 13.6 C deg | 39 % | 1011 hPa | 16.8 C deg |
| 1777967560 | 990.7 hPa | 23.1 C deg | 26.2 % | 1010.5 hPa | 15.5 C deg |
*Used Equation Coefficients:
Press: 0, 1, 0
Temp.in: 0, 1, 0
Hum: 0, 1, 0
QNH: 0, 1, 0
Temp.out: 0, 1, 0
- The parameter names for the analog channels will be Value1, Value2, Value3 (up to Value5) if station has not sent a PARAM-packet that specifies the parameter names for each analog channel.
- Each analog value is a decimal number between 000 and 255 (according to APRS specifications). The receiver use the telemetry equation coefficientsto to restore the original sensor values. If no EQNS-packet with equation coefficients is sent we will show the values as is (this corresponds to the equation coefficients a=0, b=1 and c=0).
The sent equation coefficients is used in the equation: a * value2 + b * value + c. - The units for the analog values will not be shown if station has not sent a UNIT-packet specifying what unit's to use.
- The parameter names for the digital bits will be Bit1, Bit2, Bit3 (up to Bit8) if station has not sent a PARAM-packet that specifies the parameter names for each digital bit.
- All bit labels will be named "On" if station has not sent a UNIT-packet that specifies the label of each bit.
- A bit is considered to be On when the bit is 1 if station has not sent a BITS-packet that specifies another "Bit sense" (a BITS-packet specify the state of the bits that match the BIT labels)